GB-0517 weather

Glebe Farm Airstrip
Hougham, England, United Kingdom

Public forecast

Using degrees Celsius for public forecast. Weather courtesy of forecast.io.

METAR (pilot weather report)

Closest report is MoD Boscombe Down Airport, 10.9 nm (20.2 km) E. Retrieved 2019/07/24 08:20 UTC (0 seconds ago):

EGDM 240820Z 29006KT 9999 BKN008 20/18 Q1013 BECMG CAVOK RMK GRN BECMG BLU

TAF (pilot weather forecast)

Forecast is more than 12 hours old.

Closest forecast is MoD Boscombe Down Airport, 10.9 nm (20.2 km) E. Retrieved 2010/11/20 06:11 UTC (9 years ago):

TAF EGDM 200503Z 2006/2024 08010KT 4000 BR SCT006 BKN010 TEMPO 2006/2009 3000 -RADZ BKN003 BECMG 2009/2012 7000 HZ BKN012 TEMPO 2012/2015 9999 NSW BKN015